Time;durP1;ratioP1;P1;durP2;ratioP2;P2;SDS_P1;SDS_P2;PMS_P1;PMS_P2;Temp;Humidity;BMP_temperature;BMP_pressure;BME280_temperature;BME280_humidity;BME280_pressure;Samples;Min_cycle;Max_cycle;Signal;HPM_P1;HPM_P2
2022/03/07 00:02:04;;;;;;;7.80;5.68;;;;;;;0.49;76.79;93066.88;5093052;28;20024;-41
2022/03/07 00:04:30;;;;;;;7.15;4.97;;;;;;;0.45;77.26;93067.13;5092805;28;20098;-41
2022/03/07 00:06:55;;;;;;;7.10;5.43;;;;;;;0.58;78.37;93064.69;5093050;28;20107;-41
2022/03/07 00:09:21;;;;;;;14.88;7.45;;;;;;;0.54;77.81;93052.56;5093040;28;20023;-41
2022/03/07 00:11:46;;;;;;;6.82;5.32;;;;;;;0.63;76.99;93063.91;5075833;28;20027;-41
2022/03/07 00:14:12;;;;;;;7.03;5.38;;;;;;;0.58;76.85;93072.09;5072406;28;20521;-41
2022/03/07 00:16:38;;;;;;;6.88;5.22;;;;;;;0.45;77.38;93072.56;5072627;28;20016;-41
2022/03/07 00:19:03;;;;;;;6.47;4.75;;;;;;;0.51;76.84;93067.88;5072551;28;20555;-41
2022/03/07 00:21:29;;;;;;;7.30;4.88;;;;;;;0.58;76.72;93072.09;5072602;28;20017;-41
2022/03/07 00:23:54;;;;;;;5.35;4.40;;;;;;;0.55;76.80;93068.38;5072228;28;20013;-41
2022/03/07 00:26:20;;;;;;;5.57;4.60;;;;;;;0.64;76.67;93075.53;5072139;28;20017;-41
2022/03/07 00:28:46;;;;;;;5.53;4.20;;;;;;;0.61;76.95;93071.06;5072109;28;20099;-42
2022/03/07 00:31:12;;;;;;;5.93;4.78;;;;;;;0.60;77.10;93067.63;5072051;28;20029;-41
2022/03/07 00:33:37;;;;;;;5.85;4.38;;;;;;;0.42;76.74;93059.97;5072039;28;20035;-41
2022/03/07 00:36:04;;;;;;;6.05;4.20;;;;;;;0.46;76.80;93074.03;5072238;28;20055;-41
2022/03/07 00:38:29;;;;;;;5.05;3.97;;;;;;;0.42;76.62;93072.81;5072179;28;20055;-41
2022/03/07 00:40:55;;;;;;;4.97;3.50;;;;;;;0.29;75.82;93069.81;5081477;28;20532;-41
2022/03/07 00:43:21;;;;;;;7.10;4.65;;;;;;;0.20;76.41;93065.38;5091993;28;20023;-41
2022/03/07 00:45:47;;;;;;;6.63;4.03;;;;;;;0.25;76.83;93058.47;5073913;28;20027;-41
2022/03/07 00:48:13;;;;;;;5.22;3.08;;;;;;;0.19;77.01;93052.28;5092180;28;20031;-41
2022/03/07 00:50:42;;;;;;;4.60;3.05;;;;;;;0.23;76.95;93063.66;5092262;28;20425;-41
2022/03/07 00:53:11;;;;;;;3.47;2.53;;;;;;;0.29;77.80;93067.09;5091812;28;20024;-41
2022/03/07 00:55:37;;;;;;;4.38;3.67;;;;;;;0.22;77.68;93062.19;5091956;28;20034;-41
2022/03/07 00:58:03;;;;;;;3.35;2.50;;;;;;;0.19;77.65;93063.16;5091821;28;20107;-42
2022/03/07 01:00:28;;;;;;;3.65;2.97;;;;;;;-0.19;77.54;93019.16;5091570;28;20111;-41
2022/03/07 01:02:54;;;;;;;5.50;3.53;;;;;;;0.20;78.15;93067.34;5091918;28;20027;-41
2022/03/07 01:05:19;;;;;;;3.42;2.90;;;;;;;0.29;77.39;93061.69;5091622;28;20063;-41
2022/03/07 01:07:45;;;;;;;4.15;3.22;;;;;;;0.27;77.66;93056.00;5091890;28;20043;-41
2022/03/07 01:10:11;;;;;;;4.63;3.35;;;;;;;0.30;77.32;93060.47;5087627;28;20020;-41
2022/03/07 01:12:37;;;;;;;5.22;3.60;;;;;;;0.27;77.12;93056.00;5053451;28;20028;-41
2022/03/07 01:15:03;;;;;;;4.30;2.85;;;;;;;0.16;77.61;93054.00;5071459;28;20020;-41
2022/03/07 01:17:29;;;;;;;3.95;2.78;;;;;;;0.27;77.26;93056.75;5071060;28;20025;-41
2022/03/07 01:19:54;;;;;;;3.03;2.72;;;;;;;0.33;77.28;93054.03;5070998;28;20036;-41
2022/03/07 01:22:20;;;;;;;3.00;2.70;;;;;;;0.38;77.80;93048.63;5071054;28;20021;-41
2022/03/07 01:24:45;;;;;;;3.67;3.00;;;;;;;0.40;77.56;93048.13;5071224;28;20024;-41
2022/03/07 01:27:11;;;;;;;3.90;3.10;;;;;;;0.39;77.45;93043.94;5070996;28;20406;-42
2022/03/07 01:29:36;;;;;;;4.10;3.13;;;;;;;0.37;77.33;93035.53;5071190;28;20016;-41
2022/03/07 01:32:02;;;;;;;6.55;4.47;;;;;;;0.33;76.82;93038.47;5070789;28;20024;-41
2022/03/07 01:34:27;;;;;;;5.25;4.05;;;;;;;0.42;77.03;93043.69;5070207;28;20016;-41
2022/03/07 01:36:52;;;;;;;3.38;3.00;;;;;;;0.40;76.96;93037.25;5075280;28;20024;-41
2022/03/07 01:39:18;;;;;;;4.18;3.22;;;;;;;0.33;77.22;93035.03;5091203;28;20378;-41
2022/03/07 01:41:43;;;;;;;4.05;3.28;;;;;;;0.46;77.06;93041.44;5107776;28;20435;-41
2022/03/07 01:44:36;;;;;;;5.93;3.80;;;;;;;0.49;76.86;93037.00;5111536;28;20024;-42
2022/03/07 01:47:01;;;;;;;4.63;3.10;;;;;;;0.43;76.71;93039.00;5106712;28;20575;-41
2022/03/07 01:49:27;;;;;;;3.97;3.03;;;;;;;0.37;77.40;93044.41;5111488;28;20100;-41
2022/03/07 01:51:53;;;;;;;3.17;2.80;;;;;;;0.35;76.98;93037.97;5111105;28;20024;-41
2022/03/07 01:54:20;;;;;;;3.38;2.65;;;;;;;0.42;77.00;93040.22;5111290;28;20024;-41
2022/03/07 01:56:47;;;;;;;2.30;2.10;;;;;;;0.34;77.30;93036.50;5110884;28;20170;-41
2022/03/07 01:59:14;;;;;;;2.50;2.30;;;;;;;0.36;77.22;93034.78;5110904;28;20023;-41
2022/03/07 02:01:40;;;;;;;2.80;2.50;;;;;;;0.37;77.23;93043.69;5111364;28;20023;-41
2022/03/07 02:04:06;;;;;;;15.95;10.02;;;;;;;0.29;76.58;93038.00;5092144;28;20523;-41
2022/03/07 02:06:32;;;;;;;20.77;12.70;;;;;;;0.28;76.91;93035.78;5090790;28;20517;-41
2022/03/07 02:08:58;;;;;;;13.77;7.65;;;;;;;0.23;77.29;93036.50;5090524;28;20497;-41
2022/03/07 02:11:26;;;;;;;12.52;7.55;;;;;;;0.05;77.12;93028.81;5076526;28;20021;-41
2022/03/07 02:13:52;;;;;;;9.50;6.50;;;;;;;0.17;77.21;93035.75;5070211;28;20017;-41
2022/03/07 02:16:19;;;;;;;7.43;5.97;;;;;;;0.14;76.85;93040.19;5070245;28;20025;-41
2022/03/07 02:18:44;;;;;;;10.52;6.90;;;;;;;0.23;77.25;93045.41;5070444;28;20055;-41
2022/03/07 02:21:14;;;;;;;3.42;3.10;;;;;;;0.16;76.73;93045.88;5070272;28;20492;-41
2022/03/07 02:23:40;;;;;;;4.20;3.13;;;;;;;0.11;77.06;93051.31;5070158;28;20662;-41
2022/03/07 02:26:16;;;;;;;3.22;2.45;;;;;;;0.07;77.31;93050.78;5070442;28;20024;-41
2022/03/07 02:28:46;;;;;;;2.40;2.20;;;;;;;0.07;77.10;93045.34;5070130;28;20115;-41
2022/03/07 02:31:16;;;;;;;3.97;2.72;;;;;;;0.02;77.16;93029.81;5070072;28;20028;-41
2022/03/07 02:33:42;;;;;;;2.83;2.50;;;;;;;0.14;76.99;93042.16;5079163;28;20027;-41
2022/03/07 02:36:08;;;;;;;2.53;2.08;;;;;;;0.06;77.04;93050.06;5090265;28;20020;-41
2022/03/07 02:38:34;;;;;;;3.65;2.60;;;;;;;0.12;77.66;93045.38;5090100;28;20077;-41
2022/03/07 02:41:00;;;;;;;2.17;1.90;;;;;;;0.12;76.85;93058.94;5100594;28;20023;-41
2022/03/07 02:43:26;;;;;;;2.35;1.77;;;;;;;-0.05;76.85;93039.94;5110626;28;20500;-41
2022/03/07 02:45:51;;;;;;;3.85;2.20;;;;;;;0.10;76.22;93049.81;5111562;28;20085;-41
2022/03/07 02:48:17;;;;;;;4.18;2.83;;;;;;;0.12;75.98;93055.47;5115078;28;20408;-41
2022/03/07 02:50:42;;;;;;;2.70;2.20;;;;;;;0.06;76.74;93052.78;5114952;28;20489;-41
2022/03/07 02:53:07;;;;;;;2.15;1.83;;;;;;;0.03;76.33;93050.28;5114892;28;20051;-41
2022/03/07 02:55:33;;;;;;;4.38;3.17;;;;;;;0.04;76.21;93047.09;5114482;28;20027;-41
2022/03/07 02:57:59;;;;;;;3.97;3.08;;;;;;;0.10;76.31;93047.09;5114779;28;20024;-41
2022/03/07 03:00:25;;;;;;;3.45;2.60;;;;;;;-0.04;76.34;93041.41;5114683;28;20019;-41
2022/03/07 03:02:51;;;;;;;4.28;3.17;;;;;;;0.04;76.83;93046.34;5105747;28;20501;-41
2022/03/07 03:05:16;;;;;;;6.45;4.15;;;;;;;0.07;77.64;93037.22;5093119;28;20077;-41
2022/03/07 03:07:42;;;;;;;5.55;3.70;;;;;;;-0.02;77.45;93043.59;5093360;28;20024;-41
2022/03/07 03:10:08;;;;;;;7.85;4.68;;;;;;;0.08;77.70;93046.84;5090856;28;20016;-41
2022/03/07 03:12:33;;;;;;;6.80;4.32;;;;;;;0.19;77.97;93036.00;5073825;28;20036;-41
2022/03/07 03:14:59;;;;;;;8.23;5.57;;;;;;;0.15;77.76;93033.53;5073491;28;20482;-41
2022/03/07 03:17:26;;;;;;;9.98;6.35;;;;;;;0.28;77.48;93043.91;5073735;28;20028;-41
2022/03/07 03:19:52;;;;;;;11.52;5.43;;;;;;;0.28;77.78;93035.78;5073291;28;20039;-41
2022/03/07 03:22:19;;;;;;;10.85;6.40;;;;;;;0.22;77.25;93019.47;5073413;28;20062;-41
2022/03/07 03:24:45;;;;;;;8.52;5.93;;;;;;;0.34;77.53;93036.50;5073615;28;20073;-41
2022/03/07 03:27:11;;;;;;;4.93;3.58;;;;;;;0.30;77.33;93038.75;5073333;28;20056;-41
2022/03/07 03:29:36;;;;;;;3.92;3.13;;;;;;;0.05;77.38;93035.00;5079768;28;20044;-41
2022/03/07 03:32:02;;;;;;;3.15;2.47;;;;;;;0.19;77.45;93038.72;5093785;28;20489;-41
2022/03/07 03:34:27;;;;;;;4.43;3.20;;;;;;;0.19;77.29;93027.88;5093433;28;20054;-41
2022/03/07 03:36:53;;;;;;;3.50;2.50;;;;;;;0.21;76.96;93028.84;5093411;28;20027;-41
2022/03/07 03:39:18;;;;;;;3.00;2.70;;;;;;;0.19;76.43;93033.28;5093321;28;20048;-41
2022/03/07 03:41:44;;;;;;;2.92;2.58;;;;;;;0.31;76.61;93032.81;5093202;28;20032;-41
2022/03/07 03:44:09;;;;;;;4.00;2.60;;;;;;;0.21;76.60;93017.25;5093533;28;20024;-41
2022/03/07 03:46:37;;;;;;;4.47;2.67;;;;;;;0.31;76.10;93037.50;5093461;28;20105;-41
2022/03/07 03:49:03;;;;;;;2.95;2.65;;;;;;;0.39;75.30;93044.66;5093108;28;20024;-41
2022/03/07 03:51:28;;;;;;;3.42;3.08;;;;;;;0.36;75.08;93026.66;5075053;28;20596;-41
2022/03/07 03:53:54;;;;;;;3.75;2.97;;;;;;;0.44;75.07;93029.59;5093296;28;20107;-41
2022/03/07 03:56:19;;;;;;;5.10;3.80;;;;;;;0.38;74.75;93037.00;5091560;28;20505;-41
2022/03/07 03:58:45;;;;;;;4.35;3.55;;;;;;;0.34;75.54;93031.84;5074516;28;20032;-41
2022/03/07 04:01:10;;;;;;;88.22;13.07;;;;;;;0.30;75.90;93038.75;5092876;28;20024;-42
2022/03/07 04:03:35;;;;;;;7.47;5.18;;;;;;;0.12;76.30;93037.22;5078293;28;20035;-41
2022/03/07 04:06:03;;;;;;;6.25;4.82;;;;;;;0.19;76.85;93042.19;5072525;28;20074;-41
2022/03/07 04:08:47;;;;;;;7.28;4.80;;;;;;;0.04;77.11;93024.63;5072500;28;20060;-41
2022/03/07 04:11:12;;;;;;;7.10;5.22;;;;;;;0.28;77.58;93038.50;5072371;28;20039;-42
2022/03/07 04:13:38;;;;;;;9.75;5.80;;;;;;;0.18;77.34;93037.22;5072427;28;20025;-41
2022/03/07 04:16:04;;;;;;;5.30;3.80;;;;;;;-0.01;77.64;93034.25;5072321;28;20027;-41
2022/03/07 04:18:29;;;;;;;3.67;3.28;;;;;;;0.07;77.82;93039.91;5072473;28;20161;-41
2022/03/07 04:20:54;;;;;;;4.03;3.15;;;;;;;0.13;77.10;93038.69;5072583;28;20021;-41
2022/03/07 04:23:21;;;;;;;5.47;3.22;;;;;;;-0.03;76.72;93036.72;5072519;28;20029;-41
2022/03/07 04:25:48;;;;;;;3.35;2.55;;;;;;;-0.23;77.32;93029.50;5077884;28;20122;-41
2022/03/07 04:28:13;;;;;;;4.57;3.13;;;;;;;-0.16;77.95;93037.19;5092637;28;20028;-41
2022/03/07 04:30:39;;;;;;;5.68;3.75;;;;;;;-0.11;78.05;93031.00;5092612;28;20496;-41
2022/03/07 04:33:04;;;;;;;10.82;6.90;;;;;;;-0.14;78.27;93025.84;5092584;28;20032;-40
2022/03/07 04:35:30;;;;;;;9.70;6.22;;;;;;;-0.11;78.49;93031.00;5092140;28;20032;-41
2022/03/07 04:37:55;;;;;;;5.50;4.15;;;;;;;-0.14;78.12;93033.97;5092165;28;20032;-41
2022/03/07 04:40:21;;;;;;;9.50;5.78;;;;;;;-0.17;78.10;93027.56;5096997;28;20016;-41
2022/03/07 04:42:47;;;;;;;10.98;7.38;;;;;;;-0.09;78.48;93033.97;5112750;28;20024;-41
2022/03/07 04:45:13;;;;;;;8.00;5.53;;;;;;;-0.14;78.46;93034.72;5112395;28;20508;-41
2022/03/07 04:47:39;;;;;;;9.82;6.78;;;;;;;0.02;78.14;93037.97;5112374;28;20020;-41
2022/03/07 04:50:06;;;;;;;5.80;4.65;;;;;;;-0.04;77.86;93040.66;5112282;28;20102;-41
2022/03/07 04:52:32;;;;;;;7.00;4.22;;;;;;;0.00;77.82;93031.03;5112542;28;20023;-41
2022/03/07 04:54:57;;;;;;;8.80;6.07;;;;;;;-0.03;78.22;93037.47;5112553;28;20034;-41
2022/03/07 04:57:23;;;;;;;6.22;4.35;;;;;;;0.09;78.00;93048.34;5112065;28;20496;-41
2022/03/07 04:59:48;;;;;;;6.10;4.03;;;;;;;-0.08;77.78;93038.19;5112037;28;20024;-41
2022/03/07 05:02:14;;;;;;;6.38;3.97;;;;;;;-0.17;77.77;93049.25;5108592;28;20035;-41
2022/03/07 05:04:40;;;;;;;5.28;3.42;;;;;;;-0.15;78.38;93043.34;5091672;28;20020;-41
2022/03/07 05:07:06;;;;;;;4.53;4.07;;;;;;;-0.30;78.13;93029.97;5091914;28;20433;-41
2022/03/07 05:09:32;;;;;;;22.08;9.45;;;;;;;-0.20;78.18;93047.53;5090889;28;20080;-41
2022/03/07 05:11:58;;;;;;;11.75;7.55;;;;;;;-0.26;78.58;93051.47;5072883;28;20020;-41
2022/03/07 05:14:23;;;;;;;21.35;10.27;;;;;;;-0.23;78.08;93056.66;5071138;28;20028;-41
2022/03/07 05:16:49;;;;;;;18.80;10.05;;;;;;;-0.32;78.89;93054.16;5071282;28;20052;-41
2022/03/07 05:19:14;;;;;;;11.60;7.32;;;;;;;-0.31;78.82;93050.22;5071297;28;20572;-41
2022/03/07 05:21:40;;;;;;;9.90;7.75;;;;;;;-0.29;79.10;93049.72;5073920;28;20040;-41
2022/03/07 05:24:06;;;;;;;7.18;5.70;;;;;;;-0.29;79.10;93038.88;5091492;28;20412;-41
2022/03/07 05:26:31;;;;;;;10.68;6.20;;;;;;;-0.34;77.18;93050.44;5091517;28;20057;-40
2022/03/07 05:28:57;;;;;;;13.40;8.23;;;;;;;-0.35;77.48;93048.97;5091284;28;20028;-41
2022/03/07 05:31:22;;;;;;;12.57;8.10;;;;;;;-0.24;78.15;93049.72;5091352;28;20027;-41
2022/03/07 05:33:48;;;;;;;8.82;5.85;;;;;;;-0.34;77.94;93045.00;5072907;28;20047;-41
2022/03/07 05:36:14;;;;;;;7.75;4.68;;;;;;;-0.30;78.24;93048.97;5091278;28;20035;-41
2022/03/07 05:38:40;;;;;;;9.25;5.45;;;;;;;-0.30;78.32;93040.84;5091278;28;20051;-41
2022/03/07 05:41:05;;;;;;;10.38;6.22;;;;;;;-0.32;77.92;93037.13;5090916;28;20080;-41
2022/03/07 05:43:31;;;;;;;9.32;6.05;;;;;;;-0.31;77.63;93050.22;5090890;28;20039;-41
2022/03/07 05:45:57;;;;;;;8.27;5.90;;;;;;;-0.21;77.29;93046.03;5090875;28;20020;-41
2022/03/07 05:48:22;;;;;;;7.03;5.22;;;;;;;-0.28;77.92;93045.78;5090771;28;20115;-41
2022/03/07 05:50:47;;;;;;;9.30;6.32;;;;;;;-0.25;78.30;93047.50;5090853;28;20020;-41
2022/03/07 05:53:13;;;;;;;8.27;5.68;;;;;;;-0.23;78.17;93051.22;5090742;28;20040;-41
2022/03/07 05:55:38;;;;;;;7.57;5.15;;;;;;;-0.17;78.08;93049.25;5090561;28;20031;-41
2022/03/07 05:58:04;;;;;;;7.47;4.97;;;;;;;-0.18;77.96;93050.50;5090704;28;20077;-41
2022/03/07 06:00:29;;;;;;;8.75;6.25;;;;;;;-0.32;77.58;93043.28;5090562;28;20085;-41
2022/03/07 06:02:55;;;;;;;12.85;7.25;;;;;;;-0.32;78.80;93043.28;5081426;28;20038;-40
2022/03/07 06:05:21;;;;;;;11.55;8.02;;;;;;;-0.12;78.28;93045.81;5070607;28;20028;-41
2022/03/07 06:07:47;;;;;;;8.27;5.25;;;;;;;-0.17;77.24;93032.22;5070583;28;20039;-41
2022/03/07 06:10:12;;;;;;;10.85;6.32;;;;;;;0.06;77.54;93044.63;5070471;28;20474;-41
2022/03/07 06:12:38;;;;;;;9.80;6.28;;;;;;;0.14;76.83;93039.44;5070583;28;20046;-41
2022/03/07 06:15:05;;;;;;;11.07;8.30;;;;;;;0.09;76.83;93026.63;5070190;28;20032;-41
2022/03/07 06:17:31;;;;;;;16.23;10.48;;;;;;;0.37;76.70;93057.25;5070493;28;20086;-41
2022/03/07 06:19:57;;;;;;;35.10;16.85;;;;;;;0.46;75.07;93052.31;5089505;28;20040;-41
2022/03/07 06:22:22;;;;;;;18.55;7.97;;;;;;;0.49;75.96;93053.31;5090352;28;20440;-41
2022/03/07 06:24:48;;;;;;;9.75;5.30;;;;;;;0.59;75.53;93049.09;5090606;28;20067;-41
2022/03/07 06:27:13;;;;;;;12.77;7.68;;;;;;;0.68;74.86;93051.56;5072243;28;20028;-41
2022/03/07 06:29:39;;;;;;;15.50;9.18;;;;;;;0.70;74.68;93051.81;5090375;28;20020;-41
2022/03/07 06:32:04;;;;;;;15.10;8.85;;;;;;;0.69;73.74;93053.06;5090468;28;20028;-41
2022/03/07 06:34:31;;;;;;;11.93;7.18;;;;;;;0.67;74.55;93058.97;5089795;28;20036;-41
2022/03/07 06:36:57;;;;;;;11.80;5.72;;;;;;;0.76;74.33;93055.25;5089729;28;20047;-40
2022/03/07 06:39:25;;;;;;;17.45;10.10;;;;;;;0.72;74.31;93063.69;5090037;28;20584;-41
2022/03/07 06:41:51;;;;;;;11.00;6.85;;;;;;;0.74;74.23;93068.59;5090146;28;20051;-41
2022/03/07 06:44:16;;;;;;;8.60;5.72;;;;;;;0.93;74.22;93064.16;5090364;28;20032;-41
2022/03/07 06:46:42;;;;;;;14.95;8.30;;;;;;;1.04;73.42;93061.41;5090369;28;20456;-41
2022/03/07 06:49:07;;;;;;;12.45;7.55;;;;;;;1.08;72.50;93056.50;5090315;28;20386;-41
2022/03/07 06:51:33;;;;;;;13.57;8.30;;;;;;;1.12;73.28;93051.53;5090046;28;20460;-41
2022/03/07 06:53:58;;;;;;;43.35;20.42;;;;;;;1.30;72.72;93053.69;5089991;28;20071;-40
2022/03/07 06:56:24;;;;;;;26.55;13.35;;;;;;;1.53;72.19;93044.25;5090016;28;20044;-41
2022/03/07 06:58:49;;;;;;;14.38;9.82;;;;;;;1.65;70.75;93052.34;5090226;28;20090;-41
2022/03/07 07:01:15;;;;;;;14.15;9.65;;;;;;;1.69;70.54;93044.69;5090195;28;20097;-41
2022/03/07 07:03:40;;;;;;;9.23;6.47;;;;;;;1.89;70.71;93049.75;5090189;28;20039;-41
2022/03/07 07:06:06;;;;;;;5.05;3.60;;;;;;;2.03;69.64;93057.63;5090188;28;20031;-41
2022/03/07 07:08:31;;;;;;;4.45;4.00;;;;;;;2.15;68.38;93050.88;5089917;28;20097;-41
2022/03/07 07:10:57;;;;;;;4.80;2.88;;;;;;;2.16;68.39;93048.88;5079804;28;20029;-41
2022/03/07 07:13:22;;;;;;;6.90;5.80;;;;;;;2.30;67.42;93031.47;5051775;28;20555;-41
2022/03/07 07:15:55;;;;;;;6.75;3.47;;;;;;;2.38;68.22;93042.56;5085802;28;20109;-41
2022/03/07 07:18:21;;;;;;;8.18;5.65;;;;;;;2.58;67.67;93042.91;5089823;28;20107;-41
2022/03/07 07:20:46;;;;;;;6.13;4.47;;;;;;;2.54;68.02;93058.03;5089992;28;20463;-41
2022/03/07 07:23:12;;;;;;;18.85;6.80;;;;;;;2.65;66.99;93053.25;5090018;28;20024;-41
2022/03/07 07:25:37;;;;;;;12.32;7.60;;;;;;;2.75;66.97;93045.50;5089800;28;20508;-41
2022/03/07 07:28:03;;;;;;;24.48;10.98;;;;;;;2.91;66.62;93055.53;5090008;28;20059;-41
2022/03/07 07:30:28;;;;;;;8.95;6.47;;;;;;;2.94;65.91;93058.00;5089652;28;20024;-41
2022/03/07 07:32:54;;;;;;;8.70;6.35;;;;;;;2.93;66.16;93053.03;5090777;28;20039;-41
2022/03/07 07:35:19;;;;;;;10.55;6.90;;;;;;;2.80;66.31;93056.34;5093420;28;20136;-41
2022/03/07 07:37:45;;;;;;;9.77;6.28;;;;;;;2.85;66.32;93050.13;5093381;28;20246;-41
2022/03/07 07:40:10;;;;;;;5.30;4.72;;;;;;;2.86;65.56;93054.31;5075167;28;20027;-41
2022/03/07 07:42:36;;;;;;;10.38;6.55;;;;;;;2.59;66.58;93057.28;5093203;28;20529;-41
2022/03/07 07:45:01;;;;;;;19.65;11.15;;;;;;;2.47;66.33;93056.59;5093217;28;20161;-41
2022/03/07 07:47:27;;;;;;;23.65;12.77;;;;;;;2.39;67.49;93058.41;5093484;28;20066;-42
2022/03/07 07:49:52;;;;;;;25.92;15.35;;;;;;;2.26;67.10;93050.81;5075038;28;20412;-40
2022/03/07 07:52:18;;;;;;;25.63;13.77;;;;;;;2.25;66.55;93040.41;5093111;28;20408;-41
2022/03/07 07:54:43;;;;;;;22.45;10.32;;;;;;;2.33;67.49;93074.03;5093014;28;20173;-41
2022/03/07 07:57:10;;;;;;;20.50;9.68;;;;;;;2.27;66.66;93062.44;5092907;28;20051;-41
2022/03/07 07:59:36;;;;;;;19.15;9.70;;;;;;;2.15;66.96;93067.22;5093104;28;20038;-41
2022/03/07 08:02:01;;;;;;;28.30;13.35;;;;;;;2.15;68.05;93069.19;5091207;28;20492;-41
2022/03/07 08:04:27;;;;;;;27.15;13.40;;;;;;;2.24;67.28;93058.00;5072893;28;20036;-41
2022/03/07 08:06:52;;;;;;;27.42;13.57;;;;;;;2.34;67.65;93063.91;5072636;28;20425;-41
2022/03/07 08:09:18;;;;;;;24.65;10.88;;;;;;;2.23;67.23;93061.97;5072593;28;20020;-41
2022/03/07 08:11:43;;;;;;;24.27;13.73;;;;;;;2.33;68.07;93057.69;5085799;28;20047;-41
2022/03/07 08:14:08;;;;;;;24.67;15.30;;;;;;;2.46;67.61;93065.28;5092685;28;20035;-41
2022/03/07 08:16:34;;;;;;;22.92;15.52;;;;;;;2.63;66.71;93068.63;5092630;28;20028;-41
2022/03/07 08:18:59;;;;;;;12.10;8.70;;;;;;;2.65;66.66;93066.88;5092785;28;20056;-40
2022/03/07 08:21:25;;;;;;;8.32;5.75;;;;;;;2.65;66.84;93069.59;5092481;28;20050;-41
2022/03/07 08:23:53;;;;;;;7.85;4.20;;;;;;;2.49;67.14;93069.75;5092564;28;20028;-41
2022/03/07 08:26:19;;;;;;;14.70;8.27;;;;;;;2.76;66.62;93069.53;5092696;28;20478;-40
2022/03/07 08:28:44;;;;;;;16.80;9.02;;;;;;;3.12;66.52;93070.22;5092638;28;20122;-41
2022/03/07 08:31:09;;;;;;;7.15;4.50;;;;;;;3.27;65.04;93073.28;5092354;28;20035;-41
2022/03/07 08:33:35;;;;;;;7.05;5.10;;;;;;;3.41;65.05;93071.44;5092267;28;20056;-41
2022/03/07 08:36:01;;;;;;;7.00;5.20;;;;;;;3.56;64.21;93069.78;5092246;28;20098;-40
2022/03/07 08:38:27;;;;;;;6.50;5.05;;;;;;;3.60;63.01;93069.47;5092397;28;20066;-40
2022/03/07 08:40:53;;;;;;;7.15;5.50;;;;;;;3.71;63.40;93077.56;5091832;28;20027;-41
2022/03/07 08:43:19;;;;;;;7.30;4.60;;;;;;;3.54;62.98;93066.81;5092034;28;20027;-41
2022/03/07 08:45:45;;;;;;;9.80;4.70;;;;;;;3.53;63.96;93068.06;5092048;28;20020;-40
2022/03/07 08:48:10;;;;;;;10.73;6.82;;;;;;;3.46;63.46;93071.38;5091987;28;20489;-41
2022/03/07 08:50:36;;;;;;;8.18;5.25;;;;;;;3.47;63.52;93077.56;5091980;28;20027;-41
2022/03/07 08:53:01;;;;;;;7.45;4.72;;;;;;;3.77;63.78;93070.03;5092197;28;20028;-41
2022/03/07 08:55:27;;;;;;;8.27;5.18;;;;;;;3.74;62.76;93073.81;5091823;28;20493;-41
2022/03/07 08:57:52;;;;;;;5.07;3.22;;;;;;;3.57;62.12;93073.97;5091700;28;20055;-41
2022/03/07 09:00:18;;;;;;;7.18;4.20;;;;;;;3.61;63.99;93076.44;5091742;28;20016;-40
2022/03/07 09:02:43;;;;;;;7.57;4.97;;;;;;;3.47;63.33;93070.13;5084469;28;20028;-40
2022/03/07 09:05:09;;;;;;;8.55;5.00;;;;;;;3.44;63.22;93079.34;5071540;28;20027;-40
2022/03/07 09:07:35;;;;;;;9.85;5.82;;;;;;;3.36;64.15;93078.41;5081529;28;20028;-40
2022/03/07 09:10:01;;;;;;;6.65;4.60;;;;;;;3.36;63.36;93080.41;5089312;28;20022;-41
2022/03/07 09:12:29;;;;;;;10.73;6.07;;;;;;;3.36;64.50;93074.94;5071537;28;20104;-40
2022/03/07 09:14:56;;;;;;;41.92;18.67;;;;;;;3.50;63.21;93082.75;5071312;28;20048;-40
2022/03/07 09:17:22;;;;;;;51.85;22.23;;;;;;;3.48;63.24;93084.50;5071483;28;20103;-40
2022/03/07 09:19:48;;;;;;;38.35;14.60;;;;;;;3.44;63.51;93078.59;5071033;28;20021;-40
2022/03/07 09:22:13;;;;;;;46.50;20.20;;;;;;;3.50;64.80;93085.47;5071400;28;20021;-41
2022/03/07 09:24:39;;;;;;;55.38;20.30;;;;;;;3.47;63.57;93078.31;5071042;28;20481;-40
2022/03/07 09:27:04;;;;;;;13.52;7.47;;;;;;;3.57;63.75;93079.44;5071018;28;20099;-40
2022/03/07 09:29:30;;;;;;;8.27;5.65;;;;;;;3.53;63.68;93078.25;5070953;28;20016;-40
2022/03/07 09:31:56;;;;;;;12.10;6.97;;;;;;;3.60;62.84;93075.69;5070851;28;20032;-40
2022/03/07 09:34:21;;;;;;;9.85;4.72;;;;;;;3.66;63.41;93067.44;5071218;28;20031;-41
2022/03/07 09:36:47;;;;;;;8.50;5.80;;;;;;;3.73;62.94;93066.84;5070798;28;20031;-41
2022/03/07 09:39:12;;;;;;;10.70;6.38;;;;;;;3.89;63.45;93068.66;5070800;28;20028;-41
2022/03/07 09:41:41;;;;;;;16.25;9.02;;;;;;;4.12;63.18;93063.66;5086690;28;20512;-41
2022/03/07 09:44:06;;;;;;;12.75;7.50;;;;;;;4.14;61.65;93064.63;5090925;28;20109;-41
2022/03/07 09:46:32;;;;;;;8.73;5.57;;;;;;;4.18;61.33;93062.31;5090954;28;20114;-41
2022/03/07 09:48:57;;;;;;;5.78;4.70;;;;;;;4.15;61.76;93057.91;5091114;28;20034;-41
2022/03/07 09:51:23;;;;;;;4.70;4.13;;;;;;;4.18;60.74;93070.53;5091165;28;20012;-41
2022/03/07 09:53:48;;;;;;;7.35;5.20;;;;;;;4.10;61.44;93069.63;5090793;28;20459;-41
2022/03/07 09:56:14;;;;;;;9.80;6.80;;;;;;;4.26;61.85;93063.22;5090250;28;20051;-41
2022/03/07 09:58:39;;;;;;;9.52;6.85;;;;;;;4.05;61.33;93062.25;5090975;28;20744;-40
2022/03/07 10:01:13;;;;;;;6.63;5.25;;;;;;;4.20;60.80;93065.28;5090930;28;20521;-41
2022/03/07 10:03:40;;;;;;;5.47;4.35;;;;;;;4.24;59.74;93034.94;5083020;28;20051;-41
2022/03/07 10:06:13;;;;;;;3.47;2.85;;;;;;;4.38;59.52;93063.81;5090284;28;20024;-41
2022/03/07 10:08:39;;;;;;;4.07;2.92;;;;;;;4.15;61.04;93038.78;5090683;28;20020;-41
2022/03/07 10:11:09;;;;;;;4.82;4.15;;;;;;;4.50;60.84;93057.66;5079544;28;20048;-41
2022/03/07 10:13:35;;;;;;;4.90;3.90;;;;;;;4.92;59.63;93066.22;5070551;28;20039;-41
2022/03/07 10:16:03;;;;;;;5.97;4.22;;;;;;;4.91;59.97;93049.09;5070231;28;20028;-41
2022/03/07 10:18:29;;;;;;;4.28;3.17;;;;;;;4.94;58.84;93058.25;5070149;28;20103;-41
2022/03/07 10:20:58;;;;;;;4.70;3.58;;;;;;;4.96;58.61;93055.75;5070362;28;20020;-41
2022/03/07 10:23:25;;;;;;;7.38;6.30;;;;;;;5.11;58.91;93045.75;5070456;28;20047;-41
2022/03/07 10:25:51;;;;;;;9.85;7.13;;;;;;;5.23;57.31;93054.53;5070186;28;20509;-41
2022/03/07 10:28:18;;;;;;;8.23;6.53;;;;;;;5.27;57.69;93046.75;5070322;28;20103;-41
2022/03/07 10:30:43;;;;;;;6.93;5.50;;;;;;;5.26;57.90;93045.28;5070409;28;20436;-41
2022/03/07 10:33:13;;;;;;;6.25;4.18;;;;;;;5.26;57.40;93050.75;5070319;28;20031;-41
2022/03/07 10:35:43;;;;;;;7.43;5.15;;;;;;;5.13;58.24;93045.25;5070066;28;20111;-41
2022/03/07 10:38:14;;;;;;;3.85;3.25;;;;;;;4.95;57.72;93044.06;5070009;28;20053;-41
2022/03/07 10:40:42;;;;;;;5.47;3.95;;;;;;;5.01;58.82;93041.22;5077788;28;20027;-41
2022/03/07 10:43:08;;;;;;;3.85;3.15;;;;;;;5.10;58.00;93040.81;5090380;28;20059;-41
2022/03/07 10:45:50;;;;;;;13.98;7.28;;;;;;;4.96;58.09;93044.81;5090169;28;20501;-41
2022/03/07 10:48:16;;;;;;;11.10;6.38;;;;;;;4.82;59.62;93040.53;5090367;28;20444;-42
2022/03/07 10:50:56;;;;;;;10.93;6.63;;;;;;;4.83;59.29;93042.03;5090162;28;20031;-41
2022/03/07 10:53:22;;;;;;;8.30;5.32;;;;;;;4.87;57.70;93039.72;5090100;28;20115;-41
2022/03/07 10:55:53;;;;;;;10.25;6.30;;;;;;;5.01;58.90;93036.50;5090118;28;20046;-41
2022/03/07 10:58:20;;;;;;;8.55;5.47;;;;;;;4.86;58.87;93035.50;5090056;28;20072;-41
2022/03/07 11:00:56;;;;;;;6.32;4.15;;;;;;;4.74;59.75;93036.94;5089853;28;20063;-41
2022/03/07 11:03:23;;;;;;;6.43;5.00;;;;;;;4.73;59.55;93030.72;5089994;28;20560;-41
2022/03/07 11:05:49;;;;;;;7.38;4.63;;;;;;;4.80;58.67;93029.38;5089940;28;20056;-42
2022/03/07 11:08:15;;;;;;;4.75;4.13;;;;;;;4.34;60.00;93005.97;5091379;28;20016;-42
2022/03/07 11:10:47;;;;;;;12.98;9.07;;;;;;;4.47;60.67;93034.09;5086268;28;20555;-41
2022/03/07 11:13:14;;;;;;;10.75;7.47;;;;;;;4.58;60.74;93041.41;5073841;28;20021;-41
2022/03/07 11:15:44;;;;;;;9.18;6.70;;;;;;;4.19;60.22;93017.38;5073647;28;20017;-42
2022/03/07 11:18:14;;;;;;;5.68;4.63;;;;;;;4.14;60.60;93040.03;5073745;28;20024;-42
2022/03/07 11:20:42;;;;;;;4.75;4.15;;;;;;;3.65;61.33;93031.22;5073668;28;20020;-41
2022/03/07 11:23:10;;;;;;;7.97;5.85;;;;;;;3.71;63.44;93031.88;5073300;28;20024;-41
2022/03/07 11:25:36;;;;;;;6.18;4.90;;;;;;;3.67;62.34;93028.72;5073602;28;20465;-41
2022/03/07 11:28:02;;;;;;;7.80;6.57;;;;;;;3.69;61.57;93033.66;5055529;28;20021;-42
2022/03/07 11:30:34;;;;;;;6.68;5.40;;;;;;;3.32;62.60;92995.38;5073500;28;20021;-41
2022/03/07 11:33:10;;;;;;;8.15;5.95;;;;;;;3.27;63.58;93021.44;5073518;28;20024;-41